sensor_id;sensor_type;location;lat;lon;timestamp;P1;durP1;ratioP1;P2;durP2;ratioP2
75986;SDS011;74517;44.762;37.698;2023-12-20T00:00:52;4.53;;;2.53;;
75986;SDS011;74517;44.762;37.698;2023-12-20T00:01:55;6.55;;;3.30;;
75986;SDS011;74517;44.762;37.698;2023-12-20T00:02:58;7.43;;;3.25;;
75986;SDS011;74517;44.762;37.698;2023-12-20T00:04:04;4.47;;;2.22;;
75986;SDS011;74517;44.762;37.698;2023-12-20T00:05:08;3.97;;;2.58;;
75986;SDS011;74517;44.762;37.698;2023-12-20T00:06:11;5.97;;;3.00;;
75986;SDS011;74517;44.762;37.698;2023-12-20T00:07:15;4.47;;;2.80;;
75986;SDS011;74517;44.762;37.698;2023-12-20T00:08:18;4.90;;;3.40;;
75986;SDS011;74517;44.762;37.698;2023-12-20T00:09:21;5.72;;;3.10;;
75986;SDS011;74517;44.762;37.698;2023-12-20T00:10:24;3.85;;;2.90;;
75986;SDS011;74517;44.762;37.698;2023-12-20T00:11:27;6.30;;;3.20;;
75986;SDS011;74517;44.762;37.698;2023-12-20T00:12:30;3.45;;;2.22;;
75986;SDS011;74517;44.762;37.698;2023-12-20T00:13:33;3.60;;;1.63;;
75986;SDS011;74517;44.762;37.698;2023-12-20T00:14:36;3.88;;;1.85;;
75986;SDS011;74517;44.762;37.698;2023-12-20T00:15:39;3.30;;;1.63;;
75986;SDS011;74517;44.762;37.698;2023-12-20T00:16:42;3.08;;;1.90;;
75986;SDS011;74517;44.762;37.698;2023-12-20T00:17:45;4.50;;;2.10;;
75986;SDS011;74517;44.762;37.698;2023-12-20T00:18:48;3.28;;;1.75;;
75986;SDS011;74517;44.762;37.698;2023-12-20T00:19:51;5.85;;;2.38;;
75986;SDS011;74517;44.762;37.698;2023-12-20T00:20:54;3.10;;;1.80;;
75986;SDS011;74517;44.762;37.698;2023-12-20T00:21:57;3.55;;;1.70;;
75986;SDS011;74517;44.762;37.698;2023-12-20T00:23:01;2.72;;;2.38;;
75986;SDS011;74517;44.762;37.698;2023-12-20T00:24:05;2.15;;;1.23;;
75986;SDS011;74517;44.762;37.698;2023-12-20T00:25:08;3.70;;;2.15;;
75986;SDS011;74517;44.762;37.698;2023-12-20T00:26:11;3.45;;;2.10;;
75986;SDS011;74517;44.762;37.698;2023-12-20T00:27:15;4.10;;;1.90;;
75986;SDS011;74517;44.762;37.698;2023-12-20T00:28:17;4.13;;;1.80;;
75986;SDS011;74517;44.762;37.698;2023-12-20T00:29:20;4.07;;;2.00;;
75986;SDS011;74517;44.762;37.698;2023-12-20T00:30:23;4.82;;;2.30;;
75986;SDS011;74517;44.762;37.698;2023-12-20T00:31:27;3.35;;;1.98;;
75986;SDS011;74517;44.762;37.698;2023-12-20T00:32:30;4.68;;;1.90;;
75986;SDS011;74517;44.762;37.698;2023-12-20T00:33:33;6.05;;;2.50;;
75986;SDS011;74517;44.762;37.698;2023-12-20T00:34:36;5.63;;;2.88;;
75986;SDS011;74517;44.762;37.698;2023-12-20T00:35:39;5.03;;;3.08;;
75986;SDS011;74517;44.762;37.698;2023-12-20T00:36:42;5.32;;;3.03;;
75986;SDS011;74517;44.762;37.698;2023-12-20T00:37:45;3.83;;;2.28;;
75986;SDS011;74517;44.762;37.698;2023-12-20T00:38:48;5.05;;;2.75;;
75986;SDS011;74517;44.762;37.698;2023-12-20T00:39:52;5.40;;;2.47;;
75986;SDS011;74517;44.762;37.698;2023-12-20T00:40:55;4.45;;;2.88;;
75986;SDS011;74517;44.762;37.698;2023-12-20T00:41:58;3.45;;;2.60;;
75986;SDS011;74517;44.762;37.698;2023-12-20T00:43:01;3.75;;;2.55;;
75986;SDS011;74517;44.762;37.698;2023-12-20T00:44:04;3.97;;;2.17;;
75986;SDS011;74517;44.762;37.698;2023-12-20T00:45:07;4.68;;;2.70;;
75986;SDS011;74517;44.762;37.698;2023-12-20T00:46:11;3.90;;;2.30;;
75986;SDS011;74517;44.762;37.698;2023-12-20T00:47:14;5.50;;;2.30;;
75986;SDS011;74517;44.762;37.698;2023-12-20T00:48:17;3.92;;;1.92;;
75986;SDS011;74517;44.762;37.698;2023-12-20T00:49:20;3.20;;;1.60;;
75986;SDS011;74517;44.762;37.698;2023-12-20T00:50:23;3.25;;;2.00;;
75986;SDS011;74517;44.762;37.698;2023-12-20T00:51:27;3.40;;;1.58;;
75986;SDS011;74517;44.762;37.698;2023-12-20T00:52:30;1.55;;;1.45;;
75986;SDS011;74517;44.762;37.698;2023-12-20T00:53:33;3.38;;;1.65;;
75986;SDS011;74517;44.762;37.698;2023-12-20T00:54:36;2.22;;;1.70;;
75986;SDS011;74517;44.762;37.698;2023-12-20T00:55:39;2.88;;;1.50;;
75986;SDS011;74517;44.762;37.698;2023-12-20T00:56:43;2.63;;;1.38;;
75986;SDS011;74517;44.762;37.698;2023-12-20T00:57:46;2.33;;;1.20;;
75986;SDS011;74517;44.762;37.698;2023-12-20T00:58:49;1.10;;;0.90;;
75986;SDS011;74517;44.762;37.698;2023-12-20T00:59:52;2.40;;;1.38;;
75986;SDS011;74517;44.762;37.698;2023-12-20T01:00:55;2.20;;;1.58;;
75986;SDS011;74517;44.762;37.698;2023-12-20T01:01:58;3.65;;;1.50;;
75986;SDS011;74517;44.762;37.698;2023-12-20T01:03:01;4.78;;;2.50;;
75986;SDS011;74517;44.762;37.698;2023-12-20T01:04:04;4.53;;;1.98;;
75986;SDS011;74517;44.762;37.698;2023-12-20T01:05:07;3.47;;;2.40;;
75986;SDS011;74517;44.762;37.698;2023-12-20T01:06:11;5.95;;;2.42;;
75986;SDS011;74517;44.762;37.698;2023-12-20T01:07:14;3.72;;;2.38;;
75986;SDS011;74517;44.762;37.698;2023-12-20T01:08:17;3.28;;;2.60;;
75986;SDS011;74517;44.762;37.698;2023-12-20T01:09:20;5.35;;;2.33;;
75986;SDS011;74517;44.762;37.698;2023-12-20T01:10:31;3.83;;;2.13;;
75986;SDS011;74517;44.762;37.698;2023-12-20T01:11:34;3.70;;;2.28;;
75986;SDS011;74517;44.762;37.698;2023-12-20T01:12:37;3.85;;;1.88;;
75986;SDS011;74517;44.762;37.698;2023-12-20T01:13:40;3.72;;;2.72;;
75986;SDS011;74517;44.762;37.698;2023-12-20T01:14:43;4.13;;;2.40;;
75986;SDS011;74517;44.762;37.698;2023-12-20T01:15:46;3.03;;;2.28;;
75986;SDS011;74517;44.762;37.698;2023-12-20T01:16:50;3.67;;;1.80;;
75986;SDS011;74517;44.762;37.698;2023-12-20T01:17:53;2.83;;;2.13;;
75986;SDS011;74517;44.762;37.698;2023-12-20T01:18:56;3.47;;;1.63;;
75986;SDS011;74517;44.762;37.698;2023-12-20T01:20:02;3.35;;;2.08;;
75986;SDS011;74517;44.762;37.698;2023-12-20T01:21:06;3.75;;;2.30;;
75986;SDS011;74517;44.762;37.698;2023-12-20T01:22:09;4.75;;;2.60;;
75986;SDS011;74517;44.762;37.698;2023-12-20T01:23:12;3.45;;;2.20;;
75986;SDS011;74517;44.762;37.698;2023-12-20T01:24:15;3.60;;;2.70;;
75986;SDS011;74517;44.762;37.698;2023-12-20T01:25:18;4.20;;;1.92;;
75986;SDS011;74517;44.762;37.698;2023-12-20T01:26:21;5.40;;;2.45;;
75986;SDS011;74517;44.762;37.698;2023-12-20T01:27:24;5.70;;;3.35;;
75986;SDS011;74517;44.762;37.698;2023-12-20T01:28:27;5.75;;;3.22;;
75986;SDS011;74517;44.762;37.698;2023-12-20T01:29:30;5.80;;;2.92;;
75986;SDS011;74517;44.762;37.698;2023-12-20T01:30:33;3.80;;;2.58;;
75986;SDS011;74517;44.762;37.698;2023-12-20T01:31:36;3.83;;;2.35;;
75986;SDS011;74517;44.762;37.698;2023-12-20T01:32:39;6.38;;;2.92;;
75986;SDS011;74517;44.762;37.698;2023-12-20T01:33:45;5.05;;;2.55;;
75986;SDS011;74517;44.762;37.698;2023-12-20T01:34:48;5.97;;;2.83;;
75986;SDS011;74517;44.762;37.698;2023-12-20T01:35:51;6.97;;;4.72;;
75986;SDS011;74517;44.762;37.698;2023-12-20T01:36:54;4.90;;;3.03;;
75986;SDS011;74517;44.762;37.698;2023-12-20T01:37:57;5.78;;;3.17;;
75986;SDS011;74517;44.762;37.698;2023-12-20T01:39:00;5.05;;;2.65;;
75986;SDS011;74517;44.762;37.698;2023-12-20T01:40:04;6.20;;;3.22;;
75986;SDS011;74517;44.762;37.698;2023-12-20T01:41:08;7.72;;;3.15;;
75986;SDS011;74517;44.762;37.698;2023-12-20T01:42:11;4.53;;;3.17;;
75986;SDS011;74517;44.762;37.698;2023-12-20T01:43:14;4.72;;;2.80;;
75986;SDS011;74517;44.762;37.698;2023-12-20T01:44:17;5.38;;;3.08;;
75986;SDS011;74517;44.762;37.698;2023-12-20T01:45:20;7.32;;;3.15;;
75986;SDS011;74517;44.762;37.698;2023-12-20T01:46:23;5.18;;;2.83;;
75986;SDS011;74517;44.762;37.698;2023-12-20T01:47:26;4.95;;;3.60;;
75986;SDS011;74517;44.762;37.698;2023-12-20T01:48:29;4.53;;;2.90;;
75986;SDS011;74517;44.762;37.698;2023-12-20T01:49:34;5.25;;;3.30;;
75986;SDS011;74517;44.762;37.698;2023-12-20T01:50:38;5.10;;;2.38;;
75986;SDS011;74517;44.762;37.698;2023-12-20T01:51:42;6.72;;;3.63;;
75986;SDS011;74517;44.762;37.698;2023-12-20T01:52:45;4.68;;;2.30;;
75986;SDS011;74517;44.762;37.698;2023-12-20T01:53:49;7.25;;;2.90;;
75986;SDS011;74517;44.762;37.698;2023-12-20T01:54:52;4.43;;;2.20;;
75986;SDS011;74517;44.762;37.698;2023-12-20T01:55:57;3.58;;;2.50;;
75986;SDS011;74517;44.762;37.698;2023-12-20T01:57:01;3.88;;;2.50;;
75986;SDS011;74517;44.762;37.698;2023-12-20T01:58:08;4.38;;;2.63;;
75986;SDS011;74517;44.762;37.698;2023-12-20T01:59:12;7.75;;;3.35;;
75986;SDS011;74517;44.762;37.698;2023-12-20T02:00:15;3.78;;;1.83;;
75986;SDS011;74517;44.762;37.698;2023-12-20T02:01:20;4.85;;;2.50;;
75986;SDS011;74517;44.762;37.698;2023-12-20T02:02:24;5.18;;;2.15;;
75986;SDS011;74517;44.762;37.698;2023-12-20T02:03:29;3.38;;;2.45;;
75986;SDS011;74517;44.762;37.698;2023-12-20T02:04:32;4.50;;;2.45;;
75986;SDS011;74517;44.762;37.698;2023-12-20T02:05:36;4.93;;;2.15;;
75986;SDS011;74517;44.762;37.698;2023-12-20T02:06:41;5.93;;;1.73;;
75986;SDS011;74517;44.762;37.698;2023-12-20T02:07:46;4.13;;;2.38;;
75986;SDS011;74517;44.762;37.698;2023-12-20T02:08:49;2.65;;;1.83;;
75986;SDS011;74517;44.762;37.698;2023-12-20T02:09:53;3.35;;;2.20;;
75986;SDS011;74517;44.762;37.698;2023-12-20T02:10:56;3.97;;;1.85;;
75986;SDS011;74517;44.762;37.698;2023-12-20T02:11:59;2.85;;;1.42;;
75986;SDS011;74517;44.762;37.698;2023-12-20T02:13:03;4.75;;;1.52;;
75986;SDS011;74517;44.762;37.698;2023-12-20T02:14:06;3.45;;;2.05;;
75986;SDS011;74517;44.762;37.698;2023-12-20T02:15:09;3.92;;;2.08;;
75986;SDS011;74517;44.762;37.698;2023-12-20T02:16:12;3.88;;;1.95;;
75986;SDS011;74517;44.762;37.698;2023-12-20T02:17:16;3.13;;;1.73;;
75986;SDS011;74517;44.762;37.698;2023-12-20T02:18:19;4.95;;;2.33;;
75986;SDS011;74517;44.762;37.698;2023-12-20T02:19:22;2.83;;;2.10;;
75986;SDS011;74517;44.762;37.698;2023-12-20T02:20:25;3.72;;;1.83;;
75986;SDS011;74517;44.762;37.698;2023-12-20T02:21:34;3.28;;;1.67;;
75986;SDS011;74517;44.762;37.698;2023-12-20T02:22:37;3.55;;;1.92;;
75986;SDS011;74517;44.762;37.698;2023-12-20T02:23:40;5.32;;;2.38;;
75986;SDS011;74517;44.762;37.698;2023-12-20T02:24:43;5.97;;;2.40;;
75986;SDS011;74517;44.762;37.698;2023-12-20T02:25:47;6.03;;;2.10;;
75986;SDS011;74517;44.762;37.698;2023-12-20T02:26:50;3.10;;;1.95;;
75986;SDS011;74517;44.762;37.698;2023-12-20T02:27:53;4.43;;;2.50;;
75986;SDS011;74517;44.762;37.698;2023-12-20T02:28:57;3.72;;;1.70;;
75986;SDS011;74517;44.762;37.698;2023-12-20T02:30:01;2.88;;;1.23;;
75986;SDS011;74517;44.762;37.698;2023-12-20T02:31:04;3.58;;;1.60;;
75986;SDS011;74517;44.762;37.698;2023-12-20T02:32:07;3.45;;;1.80;;
75986;SDS011;74517;44.762;37.698;2023-12-20T02:33:10;3.08;;;1.83;;
75986;SDS011;74517;44.762;37.698;2023-12-20T02:34:16;4.20;;;2.45;;
75986;SDS011;74517;44.762;37.698;2023-12-20T02:35:19;3.92;;;2.35;;
75986;SDS011;74517;44.762;37.698;2023-12-20T02:36:22;5.30;;;3.22;;
75986;SDS011;74517;44.762;37.698;2023-12-20T02:37:25;3.22;;;1.67;;
75986;SDS011;74517;44.762;37.698;2023-12-20T02:38:28;3.00;;;1.65;;
75986;SDS011;74517;44.762;37.698;2023-12-20T02:39:31;4.60;;;1.70;;
75986;SDS011;74517;44.762;37.698;2023-12-20T02:40:35;2.15;;;1.52;;
75986;SDS011;74517;44.762;37.698;2023-12-20T02:41:38;2.00;;;1.50;;
75986;SDS011;74517;44.762;37.698;2023-12-20T02:42:41;4.57;;;2.13;;
75986;SDS011;74517;44.762;37.698;2023-12-20T02:43:44;3.83;;;2.20;;
75986;SDS011;74517;44.762;37.698;2023-12-20T02:44:47;2.67;;;1.38;;
75986;SDS011;74517;44.762;37.698;2023-12-20T02:45:50;4.88;;;2.05;;
75986;SDS011;74517;44.762;37.698;2023-12-20T02:46:54;5.85;;;2.20;;
75986;SDS011;74517;44.762;37.698;2023-12-20T02:47:57;3.15;;;1.38;;
75986;SDS011;74517;44.762;37.698;2023-12-20T02:49:00;2.22;;;1.60;;
75986;SDS011;74517;44.762;37.698;2023-12-20T02:50:03;3.72;;;1.80;;
75986;SDS011;74517;44.762;37.698;2023-12-20T02:51:06;2.65;;;1.88;;
75986;SDS011;74517;44.762;37.698;2023-12-20T02:52:09;4.72;;;2.35;;
75986;SDS011;74517;44.762;37.698;2023-12-20T02:53:12;3.30;;;1.92;;
75986;SDS011;74517;44.762;37.698;2023-12-20T02:54:15;3.55;;;1.75;;
75986;SDS011;74517;44.762;37.698;2023-12-20T02:55:18;5.20;;;2.17;;
75986;SDS011;74517;44.762;37.698;2023-12-20T02:56:21;2.67;;;1.83;;
75986;SDS011;74517;44.762;37.698;2023-12-20T02:57:24;3.90;;;1.75;;
75986;SDS011;74517;44.762;37.698;2023-12-20T02:58:27;4.10;;;1.67;;
75986;SDS011;74517;44.762;37.698;2023-12-20T02:59:30;4.15;;;1.95;;
75986;SDS011;74517;44.762;37.698;2023-12-20T03:00:33;3.35;;;1.90;;
75986;SDS011;74517;44.762;37.698;2023-12-20T03:01:41;3.00;;;2.03;;
75986;SDS011;74517;44.762;37.698;2023-12-20T03:02:46;4.18;;;1.70;;
75986;SDS011;74517;44.762;37.698;2023-12-20T03:03:49;3.55;;;1.95;;
75986;SDS011;74517;44.762;37.698;2023-12-20T03:04:53;4.70;;;1.80;;
75986;SDS011;74517;44.762;37.698;2023-12-20T03:06:00;2.47;;;1.67;;
75986;SDS011;74517;44.762;37.698;2023-12-20T03:07:03;3.10;;;1.40;;
75986;SDS011;74517;44.762;37.698;2023-12-20T03:08:06;4.18;;;1.42;;
75986;SDS011;74517;44.762;37.698;2023-12-20T03:09:09;4.25;;;1.45;;
75986;SDS011;74517;44.762;37.698;2023-12-20T03:10:12;2.97;;;1.58;;
75986;SDS011;74517;44.762;37.698;2023-12-20T03:11:16;4.70;;;2.03;;
75986;SDS011;74517;44.762;37.698;2023-12-20T03:12:19;2.08;;;1.63;;
75986;SDS011;74517;44.762;37.698;2023-12-20T03:13:22;3.90;;;1.77;;
75986;SDS011;74517;44.762;37.698;2023-12-20T03:14:25;2.85;;;1.85;;
75986;SDS011;74517;44.762;37.698;2023-12-20T03:15:28;2.70;;;1.40;;
75986;SDS011;74517;44.762;37.698;2023-12-20T03:16:31;5.10;;;1.75;;
75986;SDS011;74517;44.762;37.698;2023-12-20T03:17:37;3.63;;;1.88;;
75986;SDS011;74517;44.762;37.698;2023-12-20T03:18:40;5.20;;;2.00;;
75986;SDS011;74517;44.762;37.698;2023-12-20T03:19:43;4.18;;;1.80;;
75986;SDS011;74517;44.762;37.698;2023-12-20T03:20:45;2.08;;;1.48;;
75986;SDS011;74517;44.762;37.698;2023-12-20T03:21:50;3.25;;;1.33;;
75986;SDS011;74517;44.762;37.698;2023-12-20T03:22:55;2.28;;;1.42;;
75986;SDS011;74517;44.762;37.698;2023-12-20T03:23:58;2.40;;;1.58;;
75986;SDS011;74517;44.762;37.698;2023-12-20T03:25:01;2.85;;;1.20;;
75986;SDS011;74517;44.762;37.698;2023-12-20T03:26:08;3.88;;;1.60;;
75986;SDS011;74517;44.762;37.698;2023-12-20T03:27:11;2.25;;;1.52;;
75986;SDS011;74517;44.762;37.698;2023-12-20T03:28:14;2.53;;;1.90;;
75986;SDS011;74517;44.762;37.698;2023-12-20T03:29:18;3.85;;;1.55;;
75986;SDS011;74517;44.762;37.698;2023-12-20T03:30:21;3.08;;;1.77;;
75986;SDS011;74517;44.762;37.698;2023-12-20T03:31:24;3.75;;;1.60;;
75986;SDS011;74517;44.762;37.698;2023-12-20T03:32:27;2.05;;;1.40;;
75986;SDS011;74517;44.762;37.698;2023-12-20T03:33:30;2.70;;;1.50;;
75986;SDS011;74517;44.762;37.698;2023-12-20T03:34:33;2.35;;;1.35;;
75986;SDS011;74517;44.762;37.698;2023-12-20T03:35:36;2.53;;;1.40;;
75986;SDS011;74517;44.762;37.698;2023-12-20T03:36:39;3.03;;;1.67;;
75986;SDS011;74517;44.762;37.698;2023-12-20T03:37:42;3.63;;;1.45;;
75986;SDS011;74517;44.762;37.698;2023-12-20T03:38:45;3.70;;;2.08;;
75986;SDS011;74517;44.762;37.698;2023-12-20T03:39:48;2.67;;;1.60;;
75986;SDS011;74517;44.762;37.698;2023-12-20T03:40:52;4.82;;;1.92;;
75986;SDS011;74517;44.762;37.698;2023-12-20T03:41:55;4.10;;;2.10;;
75986;SDS011;74517;44.762;37.698;2023-12-20T03:42:58;2.40;;;1.58;;
75986;SDS011;74517;44.762;37.698;2023-12-20T03:44:01;1.60;;;1.10;;
75986;SDS011;74517;44.762;37.698;2023-12-20T03:45:04;3.60;;;2.05;;
75986;SDS011;74517;44.762;37.698;2023-12-20T03:46:08;3.63;;;1.60;;
75986;SDS011;74517;44.762;37.698;2023-12-20T03:47:11;3.58;;;1.60;;
75986;SDS011;74517;44.762;37.698;2023-12-20T03:48:14;4.68;;;1.70;;
75986;SDS011;74517;44.762;37.698;2023-12-20T03:49:17;3.45;;;1.60;;
75986;SDS011;74517;44.762;37.698;2023-12-20T03:50:22;2.97;;;1.80;;
75986;SDS011;74517;44.762;37.698;2023-12-20T03:51:26;2.35;;;1.48;;
75986;SDS011;74517;44.762;37.698;2023-12-20T03:52:29;9.05;;;2.20;;
75986;SDS011;74517;44.762;37.698;2023-12-20T03:53:32;3.75;;;1.67;;
75986;SDS011;74517;44.762;37.698;2023-12-20T03:54:35;2.08;;;1.38;;
75986;SDS011;74517;44.762;37.698;2023-12-20T03:55:38;4.75;;;1.70;;
75986;SDS011;74517;44.762;37.698;2023-12-20T03:56:41;2.22;;;1.80;;
75986;SDS011;74517;44.762;37.698;2023-12-20T03:57:45;3.30;;;1.50;;
75986;SDS011;74517;44.762;37.698;2023-12-20T03:58:48;2.67;;;1.50;;
75986;SDS011;74517;44.762;37.698;2023-12-20T03:59:51;5.28;;;1.90;;
75986;SDS011;74517;44.762;37.698;2023-12-20T04:00:54;3.55;;;1.98;;
75986;SDS011;74517;44.762;37.698;2023-12-20T04:01:57;2.15;;;1.42;;
75986;SDS011;74517;44.762;37.698;2023-12-20T04:03:00;4.63;;;1.85;;
75986;SDS011;74517;44.762;37.698;2023-12-20T04:04:03;4.72;;;2.00;;
75986;SDS011;74517;44.762;37.698;2023-12-20T04:05:07;4.40;;;1.70;;
75986;SDS011;74517;44.762;37.698;2023-12-20T04:06:16;4.43;;;2.10;;
75986;SDS011;74517;44.762;37.698;2023-12-20T04:07:22;2.83;;;1.75;;
75986;SDS011;74517;44.762;37.698;2023-12-20T04:08:25;2.95;;;1.83;;
75986;SDS011;74517;44.762;37.698;2023-12-20T04:09:28;2.80;;;1.55;;
75986;SDS011;74517;44.762;37.698;2023-12-20T04:10:31;2.75;;;1.50;;
75986;SDS011;74517;44.762;37.698;2023-12-20T04:11:34;3.60;;;1.65;;
75986;SDS011;74517;44.762;37.698;2023-12-20T04:12:37;3.33;;;1.60;;
75986;SDS011;74517;44.762;37.698;2023-12-20T04:13:40;2.72;;;1.50;;
75986;SDS011;74517;44.762;37.698;2023-12-20T04:14:44;4.22;;;1.83;;
75986;SDS011;74517;44.762;37.698;2023-12-20T04:15:47;2.85;;;1.50;;
75986;SDS011;74517;44.762;37.698;2023-12-20T04:16:50;3.00;;;1.52;;
75986;SDS011;74517;44.762;37.698;2023-12-20T04:17:54;4.10;;;1.58;;
75986;SDS011;74517;44.762;37.698;2023-12-20T04:18:57;2.90;;;1.83;;
75986;SDS011;74517;44.762;37.698;2023-12-20T04:20:00;2.88;;;1.75;;
75986;SDS011;74517;44.762;37.698;2023-12-20T04:21:03;2.42;;;1.60;;
75986;SDS011;74517;44.762;37.698;2023-12-20T04:22:06;3.05;;;1.75;;
75986;SDS011;74517;44.762;37.698;2023-12-20T04:23:09;2.22;;;1.70;;
75986;SDS011;74517;44.762;37.698;2023-12-20T04:24:12;3.88;;;2.00;;
75986;SDS011;74517;44.762;37.698;2023-12-20T04:25:16;4.20;;;1.70;;
75986;SDS011;74517;44.762;37.698;2023-12-20T04:26:19;6.78;;;1.52;;
75986;SDS011;74517;44.762;37.698;2023-12-20T04:27:22;3.85;;;1.52;;
75986;SDS011;74517;44.762;37.698;2023-12-20T04:28:25;3.60;;;1.90;;
75986;SDS011;74517;44.762;37.698;2023-12-20T04:29:28;2.45;;;1.23;;
75986;SDS011;74517;44.762;37.698;2023-12-20T04:30:31;2.70;;;1.45;;
75986;SDS011;74517;44.762;37.698;2023-12-20T04:31:34;1.80;;;1.60;;
75986;SDS011;74517;44.762;37.698;2023-12-20T04:32:37;4.10;;;1.50;;
75986;SDS011;74517;44.762;37.698;2023-12-20T04:33:40;2.50;;;1.60;;
75986;SDS011;74517;44.762;37.698;2023-12-20T04:34:43;2.78;;;1.77;;
75986;SDS011;74517;44.762;37.698;2023-12-20T04:35:46;3.78;;;1.77;;
75986;SDS011;74517;44.762;37.698;2023-12-20T04:36:49;1.30;;;0.90;;
75986;SDS011;74517;44.762;37.698;2023-12-20T04:37:53;1.95;;;1.35;;
75986;SDS011;74517;44.762;37.698;2023-12-20T04:38:56;4.85;;;1.73;;
75986;SDS011;74517;44.762;37.698;2023-12-20T04:39:59;3.45;;;1.95;;
75986;SDS011;74517;44.762;37.698;2023-12-20T04:41:02;3.03;;;1.42;;
75986;SDS011;74517;44.762;37.698;2023-12-20T04:42:05;3.83;;;1.98;;
75986;SDS011;74517;44.762;37.698;2023-12-20T04:43:08;2.72;;;1.80;;
75986;SDS011;74517;44.762;37.698;2023-12-20T04:44:12;3.03;;;1.50;;
75986;SDS011;74517;44.762;37.698;2023-12-20T04:45:15;2.53;;;1.80;;
75986;SDS011;74517;44.762;37.698;2023-12-20T04:46:19;3.85;;;1.98;;
75986;SDS011;74517;44.762;37.698;2023-12-20T04:47:22;3.05;;;1.92;;
75986;SDS011;74517;44.762;37.698;2023-12-20T04:48:25;4.03;;;1.77;;
75986;SDS011;74517;44.762;37.698;2023-12-20T04:49:28;4.30;;;1.98;;
75986;SDS011;74517;44.762;37.698;2023-12-20T04:50:31;3.17;;;2.13;;
75986;SDS011;74517;44.762;37.698;2023-12-20T04:51:34;2.28;;;1.42;;
75986;SDS011;74517;44.762;37.698;2023-12-20T04:52:37;3.85;;;1.50;;
75986;SDS011;74517;44.762;37.698;2023-12-20T04:53:40;1.58;;;1.08;;
75986;SDS011;74517;44.762;37.698;2023-12-20T04:54:43;4.00;;;1.58;;
75986;SDS011;74517;44.762;37.698;2023-12-20T04:55:46;5.90;;;1.70;;
75986;SDS011;74517;44.762;37.698;2023-12-20T04:56:49;3.15;;;2.00;;
75986;SDS011;74517;44.762;37.698;2023-12-20T04:57:52;3.58;;;1.98;;
75986;SDS011;74517;44.762;37.698;2023-12-20T04:58:57;2.67;;;1.52;;
75986;SDS011;74517;44.762;37.698;2023-12-20T05:00:00;3.63;;;1.30;;
75986;SDS011;74517;44.762;37.698;2023-12-20T05:01:03;2.88;;;1.50;;
75986;SDS011;74517;44.762;37.698;2023-12-20T05:02:08;2.03;;;1.17;;
75986;SDS011;74517;44.762;37.698;2023-12-20T05:03:11;2.80;;;1.35;;
75986;SDS011;74517;44.762;37.698;2023-12-20T05:04:14;4.10;;;1.65;;
75986;SDS011;74517;44.762;37.698;2023-12-20T05:05:17;3.45;;;1.10;;
75986;SDS011;74517;44.762;37.698;2023-12-20T05:06:20;2.30;;;1.50;;
75986;SDS011;74517;44.762;37.698;2023-12-20T05:07:23;1.60;;;1.15;;
75986;SDS011;74517;44.762;37.698;2023-12-20T05:08:26;3.22;;;1.90;;
75986;SDS011;74517;44.762;37.698;2023-12-20T05:09:30;2.75;;;2.03;;
75986;SDS011;74517;44.762;37.698;2023-12-20T05:10:33;3.42;;;1.83;;
75986;SDS011;74517;44.762;37.698;2023-12-20T05:11:37;3.33;;;1.35;;
75986;SDS011;74517;44.762;37.698;2023-12-20T05:12:41;3.42;;;1.65;;
75986;SDS011;74517;44.762;37.698;2023-12-20T05:13:45;2.97;;;1.52;;
75986;SDS011;74517;44.762;37.698;2023-12-20T05:14:48;5.90;;;1.63;;
75986;SDS011;74517;44.762;37.698;2023-12-20T05:15:51;2.90;;;1.67;;
75986;SDS011;74517;44.762;37.698;2023-12-20T05:16:54;3.00;;;1.85;;
75986;SDS011;74517;44.762;37.698;2023-12-20T05:17:58;3.45;;;1.50;;
75986;SDS011;74517;44.762;37.698;2023-12-20T05:19:02;3.22;;;1.38;;
75986;SDS011;74517;44.762;37.698;2023-12-20T05:20:09;2.47;;;2.15;;
75986;SDS011;74517;44.762;37.698;2023-12-20T05:21:12;4.47;;;1.83;;
75986;SDS011;74517;44.762;37.698;2023-12-20T05:22:16;4.47;;;2.83;;
75986;SDS011;74517;44.762;37.698;2023-12-20T05:23:19;3.55;;;2.30;;
75986;SDS011;74517;44.762;37.698;2023-12-20T05:24:22;3.58;;;2.50;;
75986;SDS011;74517;44.762;37.698;2023-12-20T05:25:26;9.23;;;5.18;;
75986;SDS011;74517;44.762;37.698;2023-12-20T05:26:29;5.95;;;3.88;;
75986;SDS011;74517;44.762;37.698;2023-12-20T05:27:33;7.32;;;2.22;;
75986;SDS011;74517;44.762;37.698;2023-12-20T05:28:36;2.95;;;1.58;;
75986;SDS011;74517;44.762;37.698;2023-12-20T05:29:39;4.85;;;2.05;;
75986;SDS011;74517;44.762;37.698;2023-12-20T05:30:42;3.30;;;1.60;;
75986;SDS011;74517;44.762;37.698;2023-12-20T05:31:45;4.82;;;2.40;;
75986;SDS011;74517;44.762;37.698;2023-12-20T05:32:49;6.32;;;2.72;;
75986;SDS011;74517;44.762;37.698;2023-12-20T05:33:52;6.47;;;3.10;;
75986;SDS011;74517;44.762;37.698;2023-12-20T05:34:55;4.65;;;2.17;;
75986;SDS011;74517;44.762;37.698;2023-12-20T05:35:58;9.02;;;3.90;;
75986;SDS011;74517;44.762;37.698;2023-12-20T05:37:01;7.95;;;2.53;;
75986;SDS011;74517;44.762;37.698;2023-12-20T05:38:04;4.72;;;2.05;;
75986;SDS011;74517;44.762;37.698;2023-12-20T05:39:07;5.38;;;1.73;;
75986;SDS011;74517;44.762;37.698;2023-12-20T05:40:11;1.75;;;1.20;;
75986;SDS011;74517;44.762;37.698;2023-12-20T05:41:14;4.70;;;2.17;;
75986;SDS011;74517;44.762;37.698;2023-12-20T05:42:17;3.20;;;1.52;;
75986;SDS011;74517;44.762;37.698;2023-12-20T05:43:20;2.72;;;1.42;;
75986;SDS011;74517;44.762;37.698;2023-12-20T05:44:23;2.85;;;1.45;;
75986;SDS011;74517;44.762;37.698;2023-12-20T05:45:26;1.92;;;0.90;;
75986;SDS011;74517;44.762;37.698;2023-12-20T05:46:29;4.18;;;1.00;;
75986;SDS011;74517;44.762;37.698;2023-12-20T05:47:32;2.35;;;1.17;;
75986;SDS011;74517;44.762;37.698;2023-12-20T05:48:35;2.15;;;1.40;;
75986;SDS011;74517;44.762;37.698;2023-12-20T05:49:38;2.30;;;1.08;;
75986;SDS011;74517;44.762;37.698;2023-12-20T05:50:41;2.78;;;1.52;;
75986;SDS011;74517;44.762;37.698;2023-12-20T05:51:44;2.22;;;0.93;;
75986;SDS011;74517;44.762;37.698;2023-12-20T05:52:48;1.42;;;0.90;;
75986;SDS011;74517;44.762;37.698;2023-12-20T05:53:51;1.83;;;1.40;;
75986;SDS011;74517;44.762;37.698;2023-12-20T05:54:54;2.97;;;1.40;;
75986;SDS011;74517;44.762;37.698;2023-12-20T05:55:59;2.70;;;1.10;;
75986;SDS011;74517;44.762;37.698;2023-12-20T05:57:02;0.93;;;0.82;;
75986;SDS011;74517;44.762;37.698;2023-12-20T05:58:05;3.35;;;1.10;;
75986;SDS011;74517;44.762;37.698;2023-12-20T05:59:08;3.28;;;1.02;;
75986;SDS011;74517;44.762;37.698;2023-12-20T06:00:11;2.38;;;1.20;;
75986;SDS011;74517;44.762;37.698;2023-12-20T06:01:15;1.90;;;1.23;;
75986;SDS011;74517;44.762;37.698;2023-12-20T06:02:21;2.72;;;1.10;;
75986;SDS011;74517;44.762;37.698;2023-12-20T06:03:24;2.45;;;1.20;;
75986;SDS011;74517;44.762;37.698;2023-12-20T06:04:27;2.88;;;1.13;;
75986;SDS011;74517;44.762;37.698;2023-12-20T06:05:31;1.75;;;1.00;;
75986;SDS011;74517;44.762;37.698;2023-12-20T06:06:39;1.52;;;1.00;;
75986;SDS011;74517;44.762;37.698;2023-12-20T06:07:43;1.88;;;0.95;;
75986;SDS011;74517;44.762;37.698;2023-12-20T06:08:47;2.47;;;1.20;;
75986;SDS011;74517;44.762;37.698;2023-12-20T06:09:50;1.85;;;0.90;;
75986;SDS011;74517;44.762;37.698;2023-12-20T06:10:54;1.25;;;0.88;;
75986;SDS011;74517;44.762;37.698;2023-12-20T06:11:57;2.58;;;1.00;;
75986;SDS011;74517;44.762;37.698;2023-12-20T06:13:00;1.48;;;1.00;;
75986;SDS011;74517;44.762;37.698;2023-12-20T06:14:03;2.70;;;1.60;;
75986;SDS011;74517;44.762;37.698;2023-12-20T06:15:10;3.80;;;0.90;;
75986;SDS011;74517;44.762;37.698;2023-12-20T06:16:13;2.13;;;1.05;;